createdAt,value
2023-01-13T00:01:50.797Z,102114.53
2023-01-13T00:04:18.221Z,102109.38
2023-01-13T00:06:45.466Z,102113.91
2023-01-13T00:09:12.608Z,102107.81
2023-01-13T00:11:39.637Z,102103.53
2023-01-13T00:14:06.687Z,102087.72
2023-01-13T00:16:34.001Z,102086.94
2023-01-13T00:19:02.933Z,102084.41
2023-01-13T00:21:30.056Z,102077.28
2023-01-13T00:23:57.170Z,102065.75
2023-01-13T00:26:30.848Z,102068.41
2023-01-13T00:28:58.981Z,102067.63
2023-01-13T00:31:26.751Z,102073.81
2023-01-13T00:33:59.460Z,102074.84
2023-01-13T00:36:27.117Z,102069.34
2023-01-13T00:38:54.279Z,102072.09
2023-01-13T00:41:23.275Z,102064.88
2023-01-13T00:43:51.005Z,102064.81
2023-01-13T00:46:21.232Z,102071.78
2023-01-13T00:48:48.835Z,102059.22
2023-01-13T00:51:19.747Z,102052.03
2023-01-13T00:53:49.418Z,102060.72
2023-01-13T00:56:24.314Z,102048.94
2023-01-13T00:58:58.944Z,102047.91
2023-01-13T01:01:26.545Z,102057.56
2023-01-13T01:03:55.721Z,102059.31
2023-01-13T01:06:27.773Z,102050.38
2023-01-13T01:08:56.195Z,102050.38
2023-01-13T01:11:29.411Z,102050.38
2023-01-13T01:14:02.189Z,102050.38
2023-01-13T01:16:31.648Z,102046.91
2023-01-13T01:18:59.564Z,102047.06
2023-01-13T01:21:28.219Z,102037.41
2023-01-13T01:23:55.691Z,102042.91
2023-01-13T01:26:24.917Z,102041.34
2023-01-13T01:28:53.124Z,102044.25
2023-01-13T01:31:32.012Z,102038.94
2023-01-13T01:34:00.136Z,102051.53
2023-01-13T01:36:32.408Z,102052.47
2023-01-13T01:39:00.130Z,102052.69
2023-01-13T01:41:30.299Z,102051.75
2023-01-13T01:44:29.035Z,102058.19
2023-01-13T01:46:57.863Z,102059.22
2023-01-13T01:49:33.906Z,102060.28
2023-01-13T01:52:00.931Z,102056.84
2023-01-13T01:55:09.957Z,102061.31
2023-01-13T01:57:49.338Z,102074.88
2023-01-13T02:00:20.462Z,102066.88
2023-01-13T02:02:50.180Z,102066.81
2023-01-13T02:05:18.214Z,102065.94
2023-01-13T02:07:49.512Z,102059.75
2023-01-13T02:10:20.316Z,102062.41
2023-01-13T02:12:49.084Z,102061.63
2023-01-13T02:15:39.498Z,102066.19
2023-01-13T02:18:35.745Z,102065.56
2023-01-13T02:21:45.688Z,102071.00
2023-01-13T02:24:54.789Z,102067.72
2023-01-13T02:27:42.854Z,102063.66
2023-01-13T02:30:48.367Z,102060.19
2023-01-13T02:33:31.224Z,102056.00
2023-01-13T02:36:10.514Z,102054.53
2023-01-13T02:38:51.053Z,102052.81
2023-01-13T02:41:53.369Z,102055.59
2023-01-13T02:44:26.159Z,102053.09
2023-01-13T02:47:05.380Z,102053.25
2023-01-13T02:49:46.848Z,102058.00
2023-01-13T02:52:21.233Z,102057.16
2023-01-13T02:54:58.917Z,102052.84
2023-01-13T02:57:28.549Z,102046.94
2023-01-13T02:59:56.038Z,102043.41
2023-01-13T03:02:25.452Z,102040.03
2023-01-13T03:04:57.904Z,102040.19
2023-01-13T03:07:47.986Z,102043.13
2023-01-13T03:10:51.116Z,102047.81
2023-01-13T03:13:21.065Z,102046.09
2023-01-13T03:16:09.977Z,102045.09
2023-01-13T03:18:56.549Z,102044.22
2023-01-13T03:21:49.764Z,102046.09
2023-01-13T03:24:39.028Z,102048.97
2023-01-13T03:27:41.395Z,102048.16
2023-01-13T03:30:17.434Z,102057.22
2023-01-13T03:32:49.861Z,102062.78
2023-01-13T03:35:32.458Z,102063.78
2023-01-13T03:38:34.835Z,102072.91
2023-01-13T03:41:07.120Z,102079.59
2023-01-13T03:43:58.832Z,102074.41
2023-01-13T03:46:54.873Z,102083.59
2023-01-13T03:49:25.835Z,102082.72
2023-01-13T03:51:58.850Z,102074.97
2023-01-13T03:54:31.310Z,102086.41
2023-01-13T03:57:04.476Z,102092.00
2023-01-13T03:59:35.740Z,102101.84
2023-01-13T04:02:21.933Z,102106.38
2023-01-13T04:04:54.747Z,102110.19
2023-01-13T04:07:36.307Z,102108.59
2023-01-13T04:10:07.324Z,102112.16
2023-01-13T04:13:00.321Z,102117.69
2023-01-13T04:15:30.987Z,102107.47
2023-01-13T04:18:14.492Z,102102.28
2023-01-13T04:20:43.778Z,102111.31
2023-01-13T04:23:13.832Z,102105.28
2023-01-13T04:25:45.951Z,102110.84
2023-01-13T04:28:14.406Z,102114.69
2023-01-13T04:30:42.663Z,102111.34
2023-01-13T04:33:10.759Z,102103.72
2023-01-13T04:35:38.461Z,102101.06
2023-01-13T04:38:09.083Z,102097.66
2023-01-13T04:40:36.542Z,102084.56
2023-01-13T04:43:04.351Z,102091.72
2023-01-13T04:45:32.046Z,102086.66
2023-01-13T04:47:59.304Z,102083.03
2023-01-13T04:50:26.455Z,102090.31
2023-01-13T04:52:54.328Z,102100.84
2023-01-13T04:55:23.131Z,102108.78
2023-01-13T04:57:50.097Z,102110.75
2023-01-13T05:00:19.321Z,102126.59
2023-01-13T05:02:46.498Z,102116.94
2023-01-13T05:05:13.444Z,102099.53
2023-01-13T05:07:50.695Z,102099.81
2023-01-13T05:10:18.017Z,102100.88
2023-01-13T05:13:09.584Z,102102.16
2023-01-13T05:16:01.102Z,102108.28
2023-01-13T05:18:33.848Z,102107.47
2023-01-13T05:21:00.800Z,102097.78
2023-01-13T05:23:46.930Z,102108.38
2023-01-13T05:26:13.942Z,102093.50
2023-01-13T05:28:40.852Z,102089.13
2023-01-13T05:31:08.376Z,102087.41
2023-01-13T05:33:36.143Z,102083.06
2023-01-13T05:36:04.410Z,102087.50
2023-01-13T05:38:31.311Z,102098.13
2023-01-13T05:41:18.422Z,102100.75
2023-01-13T05:43:45.434Z,102105.31
2023-01-13T05:46:12.623Z,102097.28
2023-01-13T05:48:42.087Z,102101.59
2023-01-13T05:51:11.740Z,102103.34
2023-01-13T05:53:41.009Z,102113.97
2023-01-13T05:56:09.384Z,102122.84
2023-01-13T05:58:36.793Z,102120.97
2023-01-13T06:01:08.045Z,102126.19
2023-01-13T06:03:35.984Z,102126.94
2023-01-13T06:06:04.302Z,102145.47
2023-01-13T06:08:32.314Z,102154.34
2023-01-13T06:10:59.323Z,102153.44
2023-01-13T06:13:26.428Z,102152.53
2023-01-13T06:15:58.133Z,102161.28
2023-01-13T06:18:25.676Z,102150.50
2023-01-13T06:20:52.624Z,102143.50
2023-01-13T06:23:25.320Z,102140.75
2023-01-13T06:26:21.232Z,102138.97
2023-01-13T06:28:50.149Z,102133.78
2023-01-13T06:31:17.593Z,102138.19
2023-01-13T06:33:55.817Z,102155.00
2023-01-13T06:36:31.577Z,102161.03
2023-01-13T06:39:11.577Z,102172.59
2023-01-13T06:41:57.584Z,102197.34
2023-01-13T06:44:25.329Z,102180.56
2023-01-13T06:46:52.526Z,102178.72
2023-01-13T06:49:21.530Z,102178.72
2023-01-13T06:51:48.888Z,102179.56
2023-01-13T06:54:16.515Z,102178.72
2023-01-13T06:56:44.107Z,102173.28
2023-01-13T06:59:11.065Z,102183.94
2023-01-13T07:01:42.693Z,102190.81
2023-01-13T07:04:10.029Z,102195.25
2023-01-13T07:06:37.046Z,102193.28
2023-01-13T07:09:06.730Z,102190.69
2023-01-13T07:11:38.591Z,102173.91
2023-01-13T07:14:24.143Z,102185.50
2023-01-13T07:16:53.221Z,102180.06
2023-01-13T07:19:24.049Z,102187.75
2023-01-13T07:22:04.255Z,102195.41
2023-01-13T07:24:31.571Z,102204.97
2023-01-13T07:26:58.529Z,102196.91
2023-01-13T07:29:25.553Z,102202.91
2023-01-13T07:31:54.121Z,102207.22
2023-01-13T07:34:21.100Z,102209.78
2023-01-13T07:36:48.723Z,102205.06
2023-01-13T07:39:15.787Z,102198.97
2023-01-13T07:42:01.370Z,102200.69
2023-01-13T07:44:31.525Z,102199.88
2023-01-13T07:47:10.553Z,102209.41
2023-01-13T07:49:38.623Z,102205.72
2023-01-13T07:52:15.453Z,102197.53
2023-01-13T07:54:42.720Z,102199.00
2023-01-13T07:57:09.789Z,102199.94
2023-01-13T07:59:37.155Z,102211.47
2023-01-13T08:02:04.429Z,102220.94
2023-01-13T08:04:31.525Z,102234.84
2023-01-13T08:07:02.611Z,102225.19
2023-01-13T08:09:29.946Z,102233.13
2023-01-13T08:12:15.762Z,102255.03
2023-01-13T08:14:43.006Z,102244.66
2023-01-13T08:17:25.939Z,102241.16
2023-01-13T08:19:53.725Z,102239.59
2023-01-13T08:22:20.641Z,102245.06
2023-01-13T08:24:47.774Z,102254.00
2023-01-13T08:27:14.941Z,102247.59
2023-01-13T08:29:51.045Z,102234.41
2023-01-13T08:32:25.027Z,102240.63
2023-01-13T08:34:52.405Z,102232.84
2023-01-13T08:37:19.461Z,102234.97
2023-01-13T08:39:47.400Z,102238.28
2023-01-13T08:42:14.825Z,102237.41
2023-01-13T08:44:42.081Z,102232.69
2023-01-13T08:47:09.158Z,102230.94
2023-01-13T08:49:36.086Z,102235.56
2023-01-13T08:52:03.108Z,102252.69
2023-01-13T08:54:30.073Z,102257.00
2023-01-13T08:56:57.069Z,102263.19
2023-01-13T08:59:23.958Z,102276.28
2023-01-13T09:01:51.130Z,102272.44
2023-01-13T09:04:21.428Z,102276.41
2023-01-13T09:06:49.729Z,102284.84
2023-01-13T09:09:22.565Z,102298.56
2023-01-13T09:12:10.223Z,102299.81
2023-01-13T09:14:38.690Z,102319.47
2023-01-13T09:17:07.499Z,102320.63
2023-01-13T09:19:34.443Z,102313.09
2023-01-13T09:22:01.612Z,102309.75
2023-01-13T09:24:29.054Z,102313.78
2023-01-13T09:26:56.176Z,102307.03
2023-01-13T09:29:23.267Z,102304.38
2023-01-13T09:31:50.417Z,102308.19
2023-01-13T09:34:38.257Z,102301.09
2023-01-13T09:37:06.988Z,102278.53
2023-01-13T09:39:35.134Z,102282.00
2023-01-13T09:42:47.377Z,102282.44
2023-01-13T09:45:20.917Z,102295.50
2023-01-13T09:48:05.884Z,102289.19
2023-01-13T09:50:50.541Z,102290.59
2023-01-13T09:53:30.984Z,102305.09
2023-01-13T09:55:58.135Z,102315.41
2023-01-13T09:58:25.175Z,102302.09
2023-01-13T10:01:13.184Z,102284.75
2023-01-13T10:03:40.390Z,102281.03
2023-01-13T10:06:51.882Z,102284.50
2023-01-13T10:09:44.073Z,102295.09
2023-01-13T10:12:36.417Z,102300.81
2023-01-13T10:15:04.034Z,102290.63
2023-01-13T10:17:51.036Z,102290.34
2023-01-13T10:20:26.749Z,102288.13
2023-01-13T10:23:15.321Z,102283.69
2023-01-13T10:25:56.761Z,102275.00
2023-01-13T10:28:25.487Z,102256.50
2023-01-13T10:30:52.700Z,102247.94
2023-01-13T10:33:28.143Z,102252.84
2023-01-13T10:36:12.974Z,102229.22
2023-01-13T10:38:46.195Z,102230.75
2023-01-13T10:41:15.855Z,102229.97
2023-01-13T10:44:01.656Z,102235.34
2023-01-13T10:46:29.626Z,102227.97
2023-01-13T10:48:59.031Z,102224.44
2023-01-13T10:51:39.135Z,102223.25
2023-01-13T10:54:12.849Z,102206.34
2023-01-13T10:56:42.588Z,102210.88
2023-01-13T10:59:28.945Z,102205.06
2023-01-13T11:02:13.115Z,102214.31
2023-01-13T11:04:53.521Z,102204.06
2023-01-13T11:07:58.161Z,102211.53
2023-01-13T11:10:28.972Z,102219.28
2023-01-13T11:13:12.700Z,102215.06
2023-01-13T11:15:46.409Z,102207.78
2023-01-13T11:18:24.990Z,102200.63
2023-01-13T11:20:53.146Z,102202.47
2023-01-13T11:23:34.421Z,102204.63
2023-01-13T11:26:24.051Z,102196.84
2023-01-13T11:29:00.989Z,102193.00
2023-01-13T11:31:33.864Z,102201.63
2023-01-13T11:34:37.239Z,102208.94
2023-01-13T11:37:14.898Z,102208.56
2023-01-13T11:39:53.981Z,102220.09
2023-01-13T11:42:46.551Z,102226.66
2023-01-13T11:45:25.283Z,102240.31
2023-01-13T11:47:58.291Z,102236.91
2023-01-13T11:50:40.842Z,102242.88
2023-01-13T11:53:22.331Z,102237.84
2023-01-13T11:56:16.942Z,102242.94
2023-01-13T11:58:55.717Z,102232.53
2023-01-13T12:01:44.009Z,102225.53
2023-01-13T12:04:50.080Z,102218.22
2023-01-13T12:08:04.889Z,102211.00
2023-01-13T12:10:34.731Z,102212.44
2023-01-13T12:13:27.704Z,102215.72
2023-01-13T12:16:14.906Z,102203.75
2023-01-13T12:19:21.617Z,102202.56
2023-01-13T12:21:56.969Z,102204.84
2023-01-13T12:25:03.028Z,102202.28
2023-01-13T12:27:45.322Z,102196.28
2023-01-13T12:30:37.279Z,102198.38
2023-01-13T12:33:26.954Z,102196.09
2023-01-13T12:36:26.476Z,102181.13
2023-01-13T12:38:59.575Z,102177.72
2023-01-13T12:41:32.847Z,102170.41
2023-01-13T12:44:20.350Z,102164.50
2023-01-13T12:46:56.827Z,102154.00
2023-01-13T12:49:29.631Z,102146.44
2023-01-13T12:51:56.508Z,102144.59
2023-01-13T12:54:41.603Z,102139.06
2023-01-13T12:57:21.922Z,102137.81
2023-01-13T13:00:04.038Z,102138.75
2023-01-13T13:02:41.407Z,102138.69
2023-01-13T13:05:14.484Z,102140.41
2023-01-13T13:08:20.942Z,102146.34
2023-01-13T13:11:03.176Z,102145.88
2023-01-13T13:13:43.787Z,102142.94
2023-01-13T13:16:50.691Z,102143.91
2023-01-13T13:19:21.351Z,102150.03
2023-01-13T13:22:12.954Z,102147.66
2023-01-13T13:25:03.862Z,102149.38
2023-01-13T13:27:50.155Z,102149.31
2023-01-13T13:30:40.739Z,102144.72
2023-01-13T13:33:35.298Z,102137.94
2023-01-13T13:36:11.480Z,102144.91
2023-01-13T13:39:08.137Z,102140.78
2023-01-13T13:41:55.687Z,102137.63
2023-01-13T13:44:59.562Z,102151.88
2023-01-13T13:47:39.182Z,102160.00
2023-01-13T13:50:12.939Z,102155.38
2023-01-13T13:52:54.558Z,102155.09
2023-01-13T13:55:27.411Z,102158.78
2023-01-13T13:57:57.709Z,102144.09
2023-01-13T14:03:40.003Z,102135.75
2023-01-13T14:06:08.179Z,102146.81
2023-01-13T14:08:38.478Z,102147.53
2023-01-13T14:11:32.654Z,102142.88
2023-01-13T14:14:12.914Z,102131.06
2023-01-13T14:16:44.020Z,102132.50
2023-01-13T14:19:30.750Z,102129.78
2023-01-13T14:22:01.870Z,102131.88
2023-01-13T14:24:32.048Z,102140.56
2023-01-13T14:27:16.491Z,102139.03
2023-01-13T14:29:44.268Z,102133.38
2023-01-13T14:32:17.882Z,102126.22
2023-01-13T14:34:45.156Z,102132.81
2023-01-13T14:37:33.760Z,102146.03
2023-01-13T14:40:00.800Z,102157.13
2023-01-13T14:42:42.162Z,102172.72
2023-01-13T14:45:25.081Z,102174.13
2023-01-13T14:47:53.975Z,102176.94
2023-01-13T14:50:28.768Z,102190.41
2023-01-13T14:53:04.556Z,102191.59
2023-01-13T14:55:34.834Z,102195.88
2023-01-13T14:58:37.621Z,102192.22
2023-01-13T15:01:26.437Z,102202.47
2023-01-13T15:04:18.334Z,102197.22
2023-01-13T15:06:50.742Z,102198.28
2023-01-13T15:09:25.689Z,102193.56
2023-01-13T15:11:54.389Z,102194.84
2023-01-13T15:14:31.286Z,102191.94
2023-01-13T15:16:58.396Z,102186.69
2023-01-13T15:19:25.295Z,102193.56
2023-01-13T15:21:52.414Z,102189.59
2023-01-13T15:24:19.312Z,102199.16
2023-01-13T15:26:46.285Z,102208.22
2023-01-13T15:29:17.509Z,102224.09
2023-01-13T15:31:44.635Z,102219.16
2023-01-13T15:34:11.719Z,102208.63
2023-01-13T15:36:39.973Z,102206.03
2023-01-13T15:39:13.366Z,102205.41
2023-01-13T15:41:58.624Z,102206.69
2023-01-13T15:44:45.146Z,102196.53
2023-01-13T15:48:17.063Z,102203.19
2023-01-13T15:50:44.071Z,102202.00
2023-01-13T15:53:14.384Z,102196.72
2023-01-13T15:55:47.373Z,102189.13
2023-01-13T15:58:14.944Z,102198.03
2023-01-13T16:00:42.700Z,102187.50
2023-01-13T16:03:16.573Z,102192.75
2023-01-13T16:05:44.559Z,102198.00
2023-01-13T16:08:19.306Z,102203.91
2023-01-13T16:10:46.742Z,102213.22
2023-01-13T16:13:16.438Z,102218.78
2023-01-13T16:15:50.091Z,102220.72
2023-01-13T16:18:20.406Z,102221.13
2023-01-13T16:20:52.925Z,102215.41
2023-01-13T16:23:22.533Z,102213.69
2023-01-13T16:25:50.557Z,102221.97
2023-01-13T16:28:24.107Z,102229.25
2023-01-13T16:30:51.818Z,102231.34
2023-01-13T16:33:18.786Z,102231.56
2023-01-13T16:36:10.957Z,102241.53
2023-01-13T16:38:33.186Z,102236.69
2023-01-13T16:41:00.106Z,102248.47
2023-01-13T16:43:27.913Z,102252.31
2023-01-13T16:45:54.846Z,102245.47
2023-01-13T16:48:22.841Z,102260.81
2023-01-13T16:50:49.785Z,102260.34
2023-01-13T16:53:17.067Z,102261.41
2023-01-13T16:55:44.016Z,102258.16
2023-01-13T16:58:20.891Z,102261.13
2023-01-13T17:00:48.227Z,102258.06
2023-01-13T17:03:16.456Z,102248.41
2023-01-13T17:05:46.930Z,102253.19
2023-01-13T17:08:17.772Z,102267.63
2023-01-13T17:10:46.040Z,102270.50
2023-01-13T17:13:16.757Z,102266.31
2023-01-13T17:15:44.736Z,102260.16
2023-01-13T17:18:13.620Z,102272.03
2023-01-13T17:20:41.235Z,102277.59
2023-01-13T17:23:08.518Z,102286.59
2023-01-13T17:25:35.572Z,102286.69
2023-01-13T17:28:02.894Z,102286.00
2023-01-13T17:30:38.039Z,102296.81
2023-01-13T17:33:08.050Z,102305.13
2023-01-13T17:35:35.728Z,102310.69
2023-01-13T17:38:03.306Z,102317.19
2023-01-13T17:40:32.739Z,102316.03
2023-01-13T17:42:59.714Z,102314.38
2023-01-13T17:45:33.226Z,102308.16
2023-01-13T17:48:00.711Z,102302.97
2023-01-13T17:50:27.964Z,102307.66
2023-01-13T17:52:54.806Z,102314.06
2023-01-13T17:55:21.756Z,102320.38
2023-01-13T17:57:48.765Z,102317.88
2023-01-13T18:00:16.615Z,102332.22
2023-01-13T18:02:47.572Z,102330.50
2023-01-13T18:05:14.620Z,102338.69
2023-01-13T18:07:49.117Z,102348.66
2023-01-13T18:10:16.457Z,102355.16
2023-01-13T18:12:44.323Z,102349.91
2023-01-13T18:15:11.289Z,102355.34
2023-01-13T18:17:38.247Z,102352.00
2023-01-13T18:20:26.244Z,102355.63
2023-01-13T18:23:11.758Z,102359.53
2023-01-13T18:26:03.135Z,102358.06
2023-01-13T18:28:30.182Z,102370.84
2023-01-13T18:30:57.169Z,102373.69
2023-01-13T18:33:24.723Z,102376.56
2023-01-13T18:35:53.032Z,102376.72
2023-01-13T18:38:23.865Z,102387.44
2023-01-13T18:40:50.813Z,102395.81
2023-01-13T18:43:17.904Z,102397.69
2023-01-13T18:45:50.557Z,102391.72
2023-01-13T18:48:17.496Z,102394.97
2023-01-13T18:50:44.425Z,102384.47
2023-01-13T18:53:11.482Z,102385.63
2023-01-13T18:55:38.454Z,102388.97
2023-01-13T18:58:06.034Z,102387.75
2023-01-13T19:00:36.693Z,102387.25
2023-01-13T19:05:34.498Z,102406.03
2023-01-13T19:08:02.252Z,102399.41
2023-01-13T19:10:32.193Z,102397.34
2023-01-13T19:12:59.087Z,102403.16
2023-01-13T19:15:26.015Z,102400.94
2023-01-13T19:17:52.924Z,102398.56
2023-01-13T19:20:20.206Z,102398.78
2023-01-13T19:22:54.044Z,102393.78
2023-01-13T19:25:21.424Z,102394.81
2023-01-13T19:27:48.682Z,102402.09
2023-01-13T19:30:16.452Z,102401.31
2023-01-13T19:32:43.391Z,102405.84
2023-01-13T19:35:13.214Z,102407.72
2023-01-13T19:37:40.610Z,102407.72
2023-01-13T19:40:09.517Z,102421.06
2023-01-13T19:42:54.764Z,102422.00
2023-01-13T19:45:27.887Z,102423.03
2023-01-13T19:47:56.252Z,102422.16
2023-01-13T19:50:24.298Z,102432.94
2023-01-13T19:52:51.385Z,102426.91
2023-01-13T19:55:19.935Z,102426.03
2023-01-13T19:57:47.454Z,102426.19
2023-01-13T20:00:17.195Z,102431.63
2023-01-13T20:02:49.448Z,102436.25
2023-01-13T20:05:21.444Z,102430.06
2023-01-13T20:07:50.178Z,102431.94
2023-01-13T20:10:18.779Z,102435.59
2023-01-13T20:12:45.666Z,102435.69
2023-01-13T20:15:12.949Z,102430.44
2023-01-13T20:17:41.525Z,102425.25
2023-01-13T20:20:09.791Z,102433.41
2023-01-13T20:22:38.120Z,102427.41
2023-01-13T20:25:05.535Z,102428.56
2023-01-13T20:27:32.666Z,102431.53
2023-01-13T20:29:59.683Z,102430.09
2023-01-13T20:32:26.628Z,102421.44
2023-01-13T20:34:53.616Z,102421.56
2023-01-13T20:37:20.597Z,102423.44
2023-01-13T20:39:48.346Z,102421.69
2023-01-13T20:42:30.348Z,102413.75
2023-01-13T20:45:01.332Z,102403.97
2023-01-13T20:47:29.616Z,102388.13
2023-01-13T20:49:56.701Z,102384.75
2023-01-13T20:52:24.055Z,102386.53
2023-01-13T20:54:51.130Z,102391.88
2023-01-13T20:57:18.561Z,102391.06
2023-01-13T20:59:45.846Z,102398.19
2023-01-13T21:02:15.627Z,102400.94
2023-01-13T21:04:42.849Z,102404.53
2023-01-13T21:07:10.440Z,102391.31
2023-01-13T21:09:37.422Z,102403.91
2023-01-13T21:12:23.241Z,102404.91
2023-01-13T21:15:08.854Z,102402.47
2023-01-13T21:17:54.847Z,102414.25
2023-01-13T21:20:22.225Z,102433.94
2023-01-13T21:22:49.873Z,102435.81
2023-01-13T21:25:18.342Z,102433.38
2023-01-13T21:27:45.584Z,102426.53
2023-01-13T21:30:14.995Z,102442.63
2023-01-13T21:32:43.016Z,102438.41
2023-01-13T21:35:11.868Z,102445.72
2023-01-13T21:37:40.551Z,102450.31
2023-01-13T21:40:10.336Z,102452.25
2023-01-13T21:42:56.581Z,102449.69
2023-01-13T21:45:42.715Z,102448.94
2023-01-13T21:48:09.762Z,102454.41
2023-01-13T21:50:38.379Z,102450.06
2023-01-13T21:53:05.543Z,102451.06
2023-01-13T21:55:33.024Z,102453.78
2023-01-13T21:58:15.206Z,102450.31
2023-01-13T22:00:44.820Z,102447.91
2023-01-13T22:03:14.119Z,102448.94
2023-01-13T22:05:41.457Z,102454.38
2023-01-13T22:08:08.918Z,102458.09
2023-01-13T22:10:36.000Z,102459.97
2023-01-13T22:13:23.540Z,102463.59
2023-01-13T22:15:50.559Z,102461.03
2023-01-13T22:18:18.529Z,102467.31
2023-01-13T22:20:46.388Z,102459.41
2023-01-13T22:23:13.747Z,102458.53
2023-01-13T22:25:40.780Z,102466.63
2023-01-13T22:28:09.481Z,102463.97
2023-01-13T22:30:36.541Z,102467.56
2023-01-13T22:33:06.227Z,102472.97
2023-01-13T22:35:33.136Z,102474.84
2023-01-13T22:38:00.107Z,102472.25
2023-01-13T22:40:27.054Z,102473.22
2023-01-13T22:42:54.066Z,102475.06
2023-01-13T22:45:21.116Z,102471.59
2023-01-13T22:47:49.706Z,102473.47
2023-01-13T22:50:20.939Z,102468.22
2023-01-13T22:52:47.969Z,102474.50
2023-01-13T22:55:15.056Z,102476.34
2023-01-13T22:57:47.715Z,102480.81
2023-01-13T23:00:19.163Z,102480.81
2023-01-13T23:02:46.520Z,102485.41
2023-01-13T23:05:13.999Z,102482.81
2023-01-13T23:07:41.327Z,102483.78
2023-01-13T23:10:08.964Z,102478.50
2023-01-13T23:12:36.149Z,102483.03
2023-01-13T23:15:03.728Z,102472.63
2023-01-13T23:17:30.716Z,102478.94
2023-01-13T23:19:57.628Z,102475.44
2023-01-13T23:22:24.887Z,102468.50
2023-01-13T23:24:51.744Z,102476.66
2023-01-13T23:27:18.886Z,102491.72
2023-01-13T23:29:46.347Z,102496.28
2023-01-13T23:32:13.321Z,102491.88
2023-01-13T23:34:40.208Z,102498.16
2023-01-13T23:37:07.324Z,102493.78
2023-01-13T23:39:34.258Z,102500.06
2023-01-13T23:42:01.495Z,102501.97
2023-01-13T23:44:29.597Z,102497.69
2023-01-13T23:46:56.709Z,102491.59
2023-01-13T23:49:23.796Z,102489.97
2023-01-13T23:51:51.906Z,102499.06
2023-01-13T23:54:19.414Z,102493.84
2023-01-13T23:56:49.135Z,102489.53
2023-01-13T23:59:16.390Z,102486.25
